world map with BEN marked

BEN - Airport

This information may not be accurate or current and is not valid for navigation or flight planning. No warranty of fitness for any purpose is made or implied.

flag of Libyan Arab Jamahiriya (Libya)

Donate via PayPal

Additional information is available on the NEW Great Circle Mapper

Location
City:  Benghazi, Libyan Arab Jamahiriya (Libya)
Name:Benina International Airport
ICAO / IATA:HLLB / BEN

Details
Type:Airport (Aerodrome, Airfield)
Use:Public/Civil, Military
Latitude:32°05'48"N (32.096786)
Longitude:20°16'10"E (20.269472)
Datum:WGS 1984
Elevation:433 ft (132 m)
Runways:2
Longest:11732 × 148 ft (3576 × 45 m)

Time
Timezone:UTC+2 (DST+4)
Local Time:

Weather
METAR:HLLB  041350Z 18020KT 3000 BLDU SKC 17/08 Q1007 METAR LMML 041345Z 01007KT 9999 FEW016 10/06 Q1007 NOSIG
TAF:HLLB  041100Z 0412/0512 18015G25KT 7000 NSC BECMG 0422/0424 30014KT 8000 SCT025 SCT080 PROB40 TEMPO 0500/0506 6000 SHRA BKN020 BKN070

Related Locations
Nearby:
Farthest:MGS: 11719 mi / 18860 km
Mangaia Island (A'ua'u 'Enua), CK

Find:

   beyond  
but within

Other Information
Maps:
Sources:

  


 


Great Circle Mapper   Great Circle Mapper
Great Circle Mapper FAQ   Great Circle Mapper FAQ
  Karl's Home Page
KLSē   KLSē Home
   GC on Facebook
Airlines of the World   Airlines of the World
Donate via PayPal


Copyright © 2004-2022, Karl L. Swartz. All rights reserved.
All trademarks mentioned herein belong to their respective owners.

Please see credits for attribution and copyright information.

Karl Swartz <karl@kls2.com>
  Powered by FreeBSD
Valid HTML 4.01!
Labeled with ICRA
hCard Microformat
Geo Microformat